createdAt,value
2016-07-14T00:00:18.683Z,89.58
2016-07-14T00:00:48.685Z,89.39
2016-07-14T00:01:18.714Z,89.96
2016-07-14T00:01:48.711Z,89.48
2016-07-14T00:02:18.735Z,89.67
2016-07-14T00:02:48.747Z,89.58
2016-07-14T00:03:18.760Z,90.06
2016-07-14T00:03:48.771Z,89.87
2016-07-14T00:04:18.794Z,90.06
2016-07-14T00:04:48.801Z,89.87
2016-07-14T00:05:18.833Z,90.16
2016-07-14T00:05:48.829Z,90.63
2016-07-14T00:06:18.131Z,90.44
2016-07-14T00:06:48.858Z,90.34
2016-07-14T00:07:18.876Z,90.34
2016-07-14T00:07:48.889Z,90.92
2016-07-14T00:08:18.904Z,90.82
2016-07-14T00:08:48.915Z,90.63
2016-07-14T00:09:18.928Z,90.06
2016-07-14T00:09:48.954Z,90.44
2016-07-14T00:10:18.948Z,90.53
2016-07-14T00:10:48.981Z,90.44
2016-07-14T00:11:18.990Z,90.16
2016-07-14T00:11:48.998Z,90.44
2016-07-14T00:12:19.016Z,90.63
2016-07-14T00:12:49.036Z,91.11
2016-07-14T00:13:19.055Z,90.92
2016-07-14T00:13:49.057Z,90.63
2016-07-14T00:14:19.074Z,90.73
2016-07-14T00:14:49.086Z,90.34
2016-07-14T00:15:19.094Z,91.11
2016-07-14T00:15:49.121Z,91.2
2016-07-14T00:16:19.136Z,91.49
2016-07-14T00:16:49.150Z,91.11
2016-07-14T00:17:19.152Z,91.02
2016-07-14T00:17:49.169Z,90.82
2016-07-14T00:18:19.184Z,90.53
2016-07-14T00:18:49.206Z,90.63
2016-07-14T00:19:19.208Z,90.73
2016-07-14T00:19:49.226Z,90.73
2016-07-14T00:20:19.251Z,91.02
2016-07-14T00:20:49.255Z,91.11
2016-07-14T00:21:19.285Z,90.92
2016-07-14T00:21:49.286Z,90.92
2016-07-14T00:22:18.591Z,91.02
2016-07-14T00:22:49.310Z,91.11
2016-07-14T00:23:19.331Z,91.3
2016-07-14T00:23:48.631Z,91.11
2016-07-14T00:24:19.354Z,91.11
2016-07-14T00:24:49.370Z,91.39
2016-07-14T00:25:19.385Z,91.11
2016-07-14T00:25:49.395Z,91.16
2016-07-14T00:26:19.415Z,91.16
2016-07-14T00:26:49.432Z,91.25
2016-07-14T00:27:19.449Z,91.25
2016-07-14T00:27:49.452Z,91.49
2016-07-14T00:28:19.466Z,91.3
2016-07-14T00:28:49.485Z,91.39
2016-07-14T00:29:18.785Z,91.35
2016-07-14T00:29:49.522Z,91.35
2016-07-14T00:30:19.525Z,91.78
2016-07-14T00:30:49.537Z,91.49
2016-07-14T00:31:19.555Z,91.3
2016-07-14T00:31:49.570Z,91.35
2016-07-14T00:32:18.867Z,91.16
2016-07-14T00:32:48.895Z,91.74
2016-07-14T00:33:19.605Z,91.59
2016-07-14T00:33:49.619Z,91.74
2016-07-14T00:34:19.646Z,91.54
2016-07-14T00:34:49.656Z,91.54
2016-07-14T00:35:19.662Z,91.25
2016-07-14T00:35:48.989Z,91.25
2016-07-14T00:36:19.700Z,91.54
2016-07-14T00:36:49.711Z,91.16
2016-07-14T00:37:19.728Z,91.16
2016-07-14T00:37:49.746Z,91.25
2016-07-14T00:38:19.753Z,91.64
2016-07-14T00:38:49.765Z,91.16
2016-07-14T00:39:19.779Z,91.35
2016-07-14T00:39:49.082Z,91.74
2016-07-14T00:40:19.812Z,91.35
2016-07-14T00:40:49.826Z,91.25
2016-07-14T00:41:19.838Z,91.16
2016-07-14T00:41:49.847Z,91.35
2016-07-14T00:42:19.865Z,91.25
2016-07-14T00:42:49.883Z,91.45
2016-07-14T00:43:19.894Z,91.45
2016-07-14T00:43:49.901Z,91.06
2016-07-14T00:44:19.920Z,91.35
2016-07-14T00:44:49.932Z,91.25
2016-07-14T00:45:19.956Z,91.64
2016-07-14T00:45:49.969Z,91.64
2016-07-14T00:46:19.981Z,91.93
2016-07-14T00:46:49.997Z,91.54
2016-07-14T00:47:19.296Z,91.74
2016-07-14T00:47:50.022Z,91.93
2016-07-14T00:48:20.039Z,92.4
2016-07-14T00:48:50.048Z,92.16
2016-07-14T00:49:20.068Z,92.16
2016-07-14T00:49:50.085Z,91.83
2016-07-14T00:50:20.094Z,92.36
2016-07-14T00:50:50.103Z,92.74
2016-07-14T00:51:19.406Z,92.55
2016-07-14T00:51:50.134Z,92.74
2016-07-14T00:52:20.144Z,92.36
2016-07-14T00:52:50.172Z,92.45
2016-07-14T00:53:20.180Z,92.64
2016-07-14T00:53:50.186Z,92.93
2016-07-14T00:54:20.216Z,92.93
2016-07-14T00:54:50.218Z,92.83
2016-07-14T00:55:20.243Z,92.93
2016-07-14T00:55:50.246Z,93.41
2016-07-14T00:56:19.561Z,93.12
2016-07-14T00:56:50.279Z,93.02
2016-07-14T00:57:20.287Z,93.12
2016-07-14T00:57:50.311Z,93.02
2016-07-14T00:58:20.318Z,93.5
2016-07-14T00:58:50.329Z,93.79
2016-07-14T00:59:20.342Z,93.5
2016-07-14T00:59:49.655Z,93.5
2016-07-14T01:00:20.386Z,93.5
2016-07-14T01:00:50.386Z,93.6
2016-07-14T01:01:20.407Z,93.88
2016-07-14T01:01:50.420Z,93.6
2016-07-14T01:02:20.431Z,93.7
2016-07-14T01:02:50.439Z,94.27
2016-07-14T01:03:19.749Z,94.22
2016-07-14T01:03:50.470Z,94.41
2016-07-14T01:04:20.489Z,94.41
2016-07-14T01:04:50.502Z,94.12
2016-07-14T01:05:20.526Z,94.79
2016-07-14T01:05:50.526Z,94.79
2016-07-14T01:06:20.545Z,94.79
2016-07-14T01:06:50.558Z,94.79
2016-07-14T01:07:20.565Z,94.6
2016-07-14T01:07:50.580Z,94.89
2016-07-14T01:08:20.608Z,95.36
2016-07-14T01:08:50.604Z,95.17
2016-07-14T01:09:20.621Z,95.46
2016-07-14T01:09:50.637Z,94.89
2016-07-14T01:10:20.651Z,95.17
2016-07-14T01:10:50.664Z,95.17
2016-07-14T01:11:20.681Z,94.98
2016-07-14T01:11:50.699Z,95.17
2016-07-14T01:12:20.707Z,95.84
2016-07-14T01:12:50.019Z,95.56
2016-07-14T01:13:20.744Z,95.56
2016-07-14T01:13:50.772Z,95.84
2016-07-14T01:14:20.773Z,95.75
2016-07-14T01:14:50.780Z,96.03
2016-07-14T01:15:20.794Z,96.13
2016-07-14T01:15:50.799Z,95.94
2016-07-14T01:16:20.829Z,96.22
2016-07-14T01:16:50.127Z,96.32
2016-07-14T01:17:20.851Z,96.22
2016-07-14T01:17:50.866Z,96.22
2016-07-14T01:18:20.180Z,96.13
2016-07-14T01:18:50.182Z,96.13
2016-07-14T01:19:20.899Z,96.32
2016-07-14T01:19:50.924Z,96.22
2016-07-14T01:20:20.930Z,96.27
2016-07-14T01:20:50.942Z,95.89
2016-07-14T01:21:20.967Z,96.42
2016-07-14T01:21:50.991Z,96.27
2016-07-14T01:22:20.992Z,96.27
2016-07-14T01:22:50.296Z,96.27
2016-07-14T01:23:20.303Z,96.08
2016-07-14T01:23:51.032Z,96.37
2016-07-14T01:24:21.047Z,96.56
2016-07-14T01:24:51.062Z,96.66
2016-07-14T01:25:21.076Z,96.66
2016-07-14T01:25:51.088Z,96.66
2016-07-14T01:26:20.394Z,96.56
2016-07-14T01:26:50.409Z,96.75
2016-07-14T01:27:21.137Z,96.94
2016-07-14T01:27:51.137Z,96.75
2016-07-14T01:28:20.454Z,96.75
2016-07-14T01:28:50.470Z,97.32
2016-07-14T01:29:21.179Z,97.03
2016-07-14T01:29:51.201Z,97.22
2016-07-14T01:30:21.214Z,96.94
2016-07-14T01:30:50.513Z,96.94
2016-07-14T01:31:20.530Z,97.13
2016-07-14T01:31:51.255Z,97.13
2016-07-14T01:32:21.268Z,97.42
2016-07-14T01:32:51.285Z,96.56
2016-07-14T01:33:21.292Z,97.51
2016-07-14T01:33:51.314Z,97.13
2016-07-14T01:34:21.336Z,97.03
2016-07-14T01:34:50.623Z,97.13
2016-07-14T01:35:21.346Z,97.03
2016-07-14T01:35:51.373Z,97.51
2016-07-14T01:36:21.379Z,97.42
2016-07-14T01:36:50.689Z,97.32
2016-07-14T01:37:21.407Z,97.71
2016-07-14T01:37:51.436Z,97.8
2016-07-14T01:38:21.445Z,97.71
2016-07-14T01:38:50.740Z,97.8
2016-07-14T01:39:21.471Z,97.89
2016-07-14T01:39:50.763Z,97.51
2016-07-14T01:40:20.788Z,97.89
2016-07-14T01:40:50.802Z,97.8
2016-07-14T01:41:21.518Z,97.61
2016-07-14T01:41:51.529Z,97.51
2016-07-14T01:42:21.559Z,97.71
2016-07-14T01:42:51.565Z,98.18
2016-07-14T01:43:21.599Z,97.51
2016-07-14T01:43:51.584Z,97.99
2016-07-14T01:44:21.599Z,97.89
2016-07-14T01:44:51.623Z,98.18
2016-07-14T01:45:21.621Z,97.99
2016-07-14T01:45:50.934Z,98.08
2016-07-14T01:46:21.659Z,98.18
2016-07-14T01:46:51.670Z,97.8
2016-07-14T01:47:21.689Z,97.89
2016-07-14T01:47:51.694Z,97.89
2016-07-14T01:48:21.715Z,98.37
2016-07-14T01:48:51.720Z,98.18
2016-07-14T01:49:21.740Z,98.18
2016-07-14T01:49:51.763Z,98.37
2016-07-14T01:50:21.058Z,98.47
2016-07-14T01:50:51.779Z,98.66
2016-07-14T01:51:21.805Z,98.66
2016-07-14T01:51:51.806Z,98.66
2016-07-14T01:52:21.819Z,98.37
2016-07-14T01:52:51.837Z,98.94
2016-07-14T01:53:21.853Z,99.13
2016-07-14T01:53:51.856Z,98.9
2016-07-14T01:54:21.878Z,99.23
2016-07-14T01:54:51.907Z,99.37
2016-07-14T01:55:21.920Z,99.27
2016-07-14T01:55:51.909Z,99.37
2016-07-14T01:56:21.936Z,99.23
2016-07-14T01:56:51.956Z,99.08
2016-07-14T01:57:21.967Z,99.18
2016-07-14T01:57:51.263Z,99.08
2016-07-14T01:58:21.273Z,99.27
2016-07-14T01:58:52.008Z,99.46
2016-07-14T01:59:22.010Z,99.66
2016-07-14T01:59:52.031Z,99.46
2016-07-14T02:00:22.049Z,99.27
2016-07-14T02:00:52.054Z,99.66
2016-07-14T02:01:21.370Z,98.99
2016-07-14T02:01:52.083Z,99.56
2016-07-14T02:02:22.103Z,99.37
2016-07-14T02:02:52.118Z,99.66
2016-07-14T02:03:22.129Z,99.85
2016-07-14T02:03:51.424Z,99.75
2016-07-14T02:04:22.152Z,99.75
2016-07-14T02:04:51.462Z,99.66
2016-07-14T02:05:22.185Z,99.66
2016-07-14T02:05:52.189Z,99.66
2016-07-14T02:06:22.204Z,99.85
2016-07-14T02:06:52.227Z,99.66
2016-07-14T02:07:22.240Z,99.66
2016-07-14T02:07:52.249Z,99.56
2016-07-14T02:08:22.266Z,99.85
2016-07-14T02:08:52.282Z,99.56
2016-07-14T02:09:22.290Z,99.66
2016-07-14T02:09:52.321Z,99.56
2016-07-14T02:10:22.326Z,99.95
2016-07-14T02:10:52.331Z,99.46
2016-07-14T02:11:22.352Z,99.75
2016-07-14T02:11:52.365Z,99.66
2016-07-14T02:12:21.660Z,99.99
2016-07-14T02:12:52.393Z,99.75
2016-07-14T02:13:22.423Z,99.66
2016-07-14T02:13:52.420Z,99.75
2016-07-14T02:14:22.435Z,99.66
2016-07-14T02:14:51.743Z,99.99
2016-07-14T02:15:22.455Z,99.56
2016-07-14T02:15:52.470Z,99.85
2016-07-14T02:16:22.501Z,99.75
2016-07-14T02:16:52.505Z,99.46
2016-07-14T02:17:22.520Z,99.66
2016-07-14T02:17:52.521Z,99.66
2016-07-14T02:18:21.842Z,99.66
2016-07-14T02:18:52.550Z,99.56
2016-07-14T02:19:22.564Z,99.99
2016-07-14T02:19:51.871Z,99.99
2016-07-14T02:20:22.603Z,99.99
2016-07-14T02:20:52.606Z,99.95
2016-07-14T02:21:22.622Z,99.66
2016-07-14T02:21:52.661Z,99.75
2016-07-14T02:22:21.944Z,99.56
2016-07-14T02:22:51.968Z,99.66
2016-07-14T02:23:22.682Z,99.95
2016-07-14T02:23:51.992Z,99.99
2016-07-14T02:24:21.992Z,99.99
2016-07-14T02:24:52.718Z,99.99
2016-07-14T02:25:22.741Z,99.99
2016-07-14T02:25:52.031Z,99.99
2016-07-14T02:26:22.752Z,99.99
2016-07-14T02:26:52.773Z,99.99
2016-07-14T02:27:22.805Z,99.99
2016-07-14T02:27:52.093Z,99.99
2016-07-14T02:28:22.824Z,99.99
2016-07-14T02:28:52.828Z,99.56
2016-07-14T02:29:22.842Z,99.99
2016-07-14T02:29:52.861Z,99.99
2016-07-14T02:30:22.875Z,99.99
2016-07-14T02:30:52.890Z,99.99
2016-07-14T02:31:22.895Z,99.99
2016-07-14T02:31:52.218Z,99.99
2016-07-14T02:32:22.923Z,99.99
2016-07-14T02:32:52.940Z,99.99
2016-07-14T02:33:22.242Z,99.99
2016-07-14T02:33:52.268Z,99.99
2016-07-14T02:34:22.983Z,99.99
2016-07-14T02:34:52.998Z,99.99
2016-07-14T02:35:23.012Z,99.99
2016-07-14T02:35:52.310Z,99.99
2016-07-14T02:36:23.030Z,99.95
2016-07-14T02:36:53.054Z,99.99
2016-07-14T02:37:23.073Z,99.99
2016-07-14T02:37:52.371Z,99.99
2016-07-14T02:38:23.089Z,99.99
2016-07-14T02:38:52.387Z,99.99
2016-07-14T02:39:22.412Z,99.99
2016-07-14T02:39:52.420Z,99.99
2016-07-14T02:40:23.148Z,99.99
2016-07-14T02:40:53.161Z,99.95
2016-07-14T02:41:23.190Z,99.99
2016-07-14T02:41:53.194Z,99.99
2016-07-14T02:42:22.491Z,99.99
2016-07-14T02:42:53.213Z,99.99
2016-07-14T02:43:23.222Z,99.99
2016-07-14T02:43:52.530Z,99.99
2016-07-14T02:44:23.255Z,99.99
2016-07-14T02:44:53.264Z,99.99
2016-07-14T02:45:23.287Z,99.99
2016-07-14T02:45:53.300Z,99.99
2016-07-14T02:46:22.604Z,99.99
2016-07-14T02:46:53.322Z,99.99
2016-07-14T02:47:23.338Z,99.99
2016-07-14T02:47:53.350Z,99.99
2016-07-14T02:48:22.653Z,99.99
2016-07-14T02:48:53.376Z,99.99
2016-07-14T02:49:23.392Z,99.99
2016-07-14T02:49:53.408Z,99.99
2016-07-14T02:50:22.723Z,99.99
2016-07-14T02:50:53.434Z,99.99
2016-07-14T02:51:23.451Z,99.99
2016-07-14T02:51:53.457Z,99.99
2016-07-14T02:52:23.475Z,99.99
2016-07-14T02:52:53.488Z,99.99
2016-07-14T02:53:23.504Z,99.99
2016-07-14T02:53:53.525Z,99.99
2016-07-14T02:54:23.535Z,99.99
2016-07-14T02:54:53.544Z,99.99
2016-07-14T02:55:23.555Z,99.99
2016-07-14T02:55:53.584Z,99.99
2016-07-14T02:56:22.879Z,99.99
2016-07-14T02:56:53.589Z,99.99
2016-07-14T02:57:23.605Z,99.99
2016-07-14T02:57:53.634Z,99.99
2016-07-14T02:58:23.647Z,99.99
2016-07-14T02:58:53.656Z,99.99
2016-07-14T02:59:23.670Z,99.99
2016-07-14T02:59:53.688Z,99.99
2016-07-14T03:00:22.985Z,99.99
2016-07-14T03:00:53.712Z,99.99
2016-07-14T03:01:23.719Z,99.99
2016-07-14T03:01:53.735Z,99.99
2016-07-14T03:02:23.749Z,99.99
2016-07-14T03:02:53.761Z,99.99
2016-07-14T03:03:23.784Z,99.99
2016-07-14T03:03:53.782Z,99.99
2016-07-14T03:04:23.795Z,99.99
2016-07-14T03:04:53.821Z,99.99
2016-07-14T03:05:23.840Z,99.99
2016-07-14T03:05:53.851Z,99.99
2016-07-14T03:06:23.859Z,99.99
2016-07-14T03:06:53.881Z,99.99
2016-07-14T03:07:23.897Z,99.99
2016-07-14T03:07:53.916Z,99.99
2016-07-14T03:08:23.913Z,99.99
2016-07-14T03:08:53.929Z,99.99
2016-07-14T03:09:23.933Z,99.99
2016-07-14T03:09:53.945Z,99.99
2016-07-14T03:10:23.974Z,99.99
2016-07-14T03:10:53.266Z,99.99
2016-07-14T03:11:24.000Z,99.99
2016-07-14T03:11:54.013Z,99.99
2016-07-14T03:12:24.017Z,99.99
2016-07-14T03:12:54.034Z,99.99
2016-07-14T03:13:24.049Z,99.99
2016-07-14T03:13:54.067Z,99.99
2016-07-14T03:14:24.081Z,99.99
2016-07-14T03:14:53.380Z,99.99
2016-07-14T03:15:23.398Z,99.99
2016-07-14T03:15:54.118Z,99.99
2016-07-14T03:16:24.143Z,99.99
2016-07-14T03:16:54.169Z,99.99
2016-07-14T03:17:24.156Z,99.99
2016-07-14T03:17:54.166Z,99.99
2016-07-14T03:18:24.192Z,99.99
2016-07-14T03:18:53.500Z,99.99
2016-07-14T03:19:23.498Z,99.99
2016-07-14T03:19:54.240Z,99.99
2016-07-14T03:20:24.246Z,99.99
2016-07-14T03:20:54.258Z,99.99
2016-07-14T03:21:23.564Z,99.99
2016-07-14T03:21:54.305Z,99.99
2016-07-14T03:22:24.306Z,99.99
2016-07-14T03:22:53.597Z,99.99
2016-07-14T03:23:24.325Z,99.99
2016-07-14T03:23:54.338Z,99.99
2016-07-14T03:24:24.353Z,99.99
2016-07-14T03:24:54.369Z,99.99
2016-07-14T03:25:23.677Z,99.99
2016-07-14T03:25:53.688Z,99.99
2016-07-14T03:26:24.406Z,99.99
2016-07-14T03:26:54.428Z,99.99
2016-07-14T03:27:24.440Z,99.99
2016-07-14T03:27:53.745Z,99.99
2016-07-14T03:28:23.745Z,99.99
2016-07-14T03:28:54.474Z,99.99
2016-07-14T03:29:24.487Z,99.99
2016-07-14T03:29:54.515Z,99.99
2016-07-14T03:30:24.518Z,99.99
2016-07-14T03:30:54.541Z,99.99
2016-07-14T03:31:24.540Z,99.99
2016-07-14T03:31:54.553Z,99.99
2016-07-14T03:32:24.588Z,99.99
2016-07-14T03:32:54.596Z,99.99
2016-07-14T03:33:24.598Z,99.99
2016-07-14T03:33:54.611Z,99.99
2016-07-14T03:34:24.629Z,99.99
2016-07-14T03:34:54.641Z,99.99
2016-07-14T03:35:24.666Z,99.99
2016-07-14T03:35:54.667Z,99.99
2016-07-14T03:36:24.682Z,99.99
2016-07-14T03:36:53.987Z,99.99
2016-07-14T03:37:24.000Z,99.99
2016-07-14T03:37:54.735Z,99.99
2016-07-14T03:38:24.727Z,99.99
2016-07-14T03:38:54.755Z,99.99
2016-07-14T03:39:24.761Z,99.99
2016-07-14T03:39:54.769Z,99.99
2016-07-14T03:40:24.800Z,99.99
2016-07-14T03:40:54.813Z,99.99
2016-07-14T03:41:24.816Z,99.99
2016-07-14T03:41:54.827Z,99.99
2016-07-14T03:42:24.848Z,99.99
2016-07-14T03:42:54.872Z,99.99
2016-07-14T03:43:24.872Z,99.99
2016-07-14T03:43:54.887Z,99.99
2016-07-14T03:44:24.900Z,99.99
2016-07-14T03:44:54.923Z,99.99
2016-07-14T03:45:24.928Z,99.99
2016-07-14T03:45:54.937Z,99.99
2016-07-14T03:46:24.951Z,99.99
2016-07-14T03:46:54.972Z,99.99
2016-07-14T03:47:24.988Z,99.99
2016-07-14T03:47:54.999Z,99.99
2016-07-14T03:48:25.008Z,99.99
2016-07-14T03:48:55.028Z,99.99
2016-07-14T03:49:25.037Z,99.99
2016-07-14T03:49:55.049Z,99.99
2016-07-14T03:50:24.354Z,99.99
2016-07-14T03:50:54.368Z,99.99
2016-07-14T03:51:24.383Z,99.99
2016-07-14T03:51:55.109Z,99.99
2016-07-14T03:52:25.118Z,99.99
2016-07-14T03:52:54.431Z,99.99
2016-07-14T03:53:24.436Z,99.99
2016-07-14T03:53:55.163Z,99.99
2016-07-14T03:54:25.169Z,99.99
2016-07-14T03:54:55.177Z,99.99
2016-07-14T03:55:25.200Z,99.99
2016-07-14T03:55:55.212Z,99.99
2016-07-14T03:56:25.238Z,99.99
2016-07-14T03:56:55.250Z,99.99
2016-07-14T03:57:25.266Z,99.99
2016-07-14T03:57:55.261Z,99.99
2016-07-14T03:58:25.280Z,99.99
2016-07-14T03:58:55.299Z,99.99
2016-07-14T03:59:25.315Z,99.99
2016-07-14T03:59:55.331Z,99.99
2016-07-14T04:00:25.344Z,99.99
2016-07-14T04:00:55.348Z,99.99
2016-07-14T04:01:25.372Z,99.99
2016-07-14T04:01:55.379Z,99.99
2016-07-14T04:02:24.683Z,99.99
2016-07-14T04:02:55.412Z,99.99
2016-07-14T04:03:24.704Z,99.99
2016-07-14T04:03:55.435Z,99.99
2016-07-14T04:04:25.449Z,99.99
2016-07-14T04:04:55.448Z,99.99
2016-07-14T04:05:25.472Z,99.99
2016-07-14T04:05:55.484Z,99.99
2016-07-14T04:06:25.492Z,99.95
2016-07-14T04:06:54.799Z,99.99
2016-07-14T04:07:25.532Z,99.99
2016-07-14T04:07:55.542Z,99.99
2016-07-14T04:08:25.548Z,99.99
2016-07-14T04:08:54.863Z,99.99
2016-07-14T04:09:25.582Z,99.99
2016-07-14T04:09:55.599Z,99.75
2016-07-14T04:10:25.612Z,99.99
2016-07-14T04:10:55.626Z,99.85
2016-07-14T04:11:24.938Z,99.99
2016-07-14T04:11:55.647Z,99.99
2016-07-14T04:12:25.664Z,99.99
2016-07-14T04:12:55.675Z,99.99
2016-07-14T04:13:25.692Z,99.99
2016-07-14T04:13:54.999Z,99.66
2016-07-14T04:14:25.715Z,99.75
2016-07-14T04:14:55.729Z,99.75
2016-07-14T04:15:25.751Z,99.99
2016-07-14T04:15:55.758Z,99.99
2016-07-14T04:16:25.781Z,99.99
2016-07-14T04:16:55.785Z,99.75
2016-07-14T04:17:25.800Z,99.99
2016-07-14T04:17:55.103Z,99.75
2016-07-14T04:18:25.826Z,99.99
2016-07-14T04:18:55.868Z,99.99
2016-07-14T04:19:25.145Z,99.99
2016-07-14T04:19:55.865Z,99.99
2016-07-14T04:20:25.891Z,99.99
2016-07-14T04:20:55.891Z,99.75
2016-07-14T04:21:25.918Z,99.8
2016-07-14T04:21:55.929Z,99.99
2016-07-14T04:22:25.233Z,99.99
2016-07-14T04:22:55.950Z,99.8
2016-07-14T04:23:25.964Z,99.23
2016-07-14T04:23:55.979Z,99.32
2016-07-14T04:24:25.990Z,98.18
2016-07-14T04:24:56.015Z,98.27
2016-07-14T04:25:26.020Z,98.37
2016-07-14T04:25:56.038Z,98.18
2016-07-14T04:26:26.050Z,98.08
2016-07-14T04:26:56.065Z,98.66
2016-07-14T04:27:25.364Z,98.56
2016-07-14T04:27:56.089Z,98.37
2016-07-14T04:28:26.104Z,98.37
2016-07-14T04:28:56.115Z,98.66
2016-07-14T04:29:26.136Z,99.23
2016-07-14T04:29:56.139Z,99.04
2016-07-14T04:30:25.449Z,99.52
2016-07-14T04:30:56.171Z,99.32
2016-07-14T04:31:25.484Z,99.42
2016-07-14T04:31:56.202Z,99.13
2016-07-14T04:32:26.220Z,98.94
2016-07-14T04:32:56.223Z,99.61
2016-07-14T04:33:26.235Z,99.71
2016-07-14T04:33:55.545Z,99.8
2016-07-14T04:34:26.265Z,99.42
2016-07-14T04:34:55.573Z,99.8
2016-07-14T04:35:26.304Z,99.61
2016-07-14T04:35:56.314Z,99.8
2016-07-14T04:36:25.611Z,99.61
2016-07-14T04:36:56.331Z,99.9
2016-07-14T04:37:25.638Z,99.71
2016-07-14T04:37:56.362Z,99.52
2016-07-14T04:38:25.664Z,99.71
2016-07-14T04:38:56.401Z,99.42
2016-07-14T04:39:26.403Z,99.52
2016-07-14T04:39:56.418Z,99.42
2016-07-14T04:40:25.738Z,99.32
2016-07-14T04:40:55.740Z,98.85
2016-07-14T04:41:25.752Z,98.94
2016-07-14T04:41:56.474Z,99.23
2016-07-14T04:42:26.490Z,98.94
2016-07-14T04:42:56.500Z,99.23
2016-07-14T04:43:26.534Z,99.04
2016-07-14T04:43:56.537Z,99.13
2016-07-14T04:44:26.535Z,99.23
2016-07-14T04:44:56.551Z,99.13
2016-07-14T04:45:26.568Z,98.94
2016-07-14T04:45:56.578Z,99.04
2016-07-14T04:46:26.603Z,99.23
2016-07-14T04:46:56.624Z,99.23
2016-07-14T04:47:26.626Z,99.42
2016-07-14T04:47:56.632Z,99.42
2016-07-14T04:48:26.662Z,99.52
2016-07-14T04:48:56.673Z,98.94
2016-07-14T04:49:26.681Z,98.94
2016-07-14T04:49:56.722Z,99.04
2016-07-14T04:50:26.008Z,99.42
2016-07-14T04:50:56.729Z,98.94
2016-07-14T04:51:26.741Z,98.75
2016-07-14T04:51:56.753Z,99.23
2016-07-14T04:52:26.770Z,99.13
2016-07-14T04:52:56.774Z,98.94
2016-07-14T04:53:26.789Z,98.47
2016-07-14T04:53:56.103Z,98.47
2016-07-14T04:54:26.816Z,98.56
2016-07-14T04:54:56.833Z,98.56
2016-07-14T04:55:26.143Z,98.47
2016-07-14T04:55:56.864Z,98.8
2016-07-14T04:56:26.875Z,98.37
2016-07-14T04:56:56.896Z,98.23
2016-07-14T04:57:26.899Z,98.13
2016-07-14T04:57:56.913Z,98.03
2016-07-14T04:58:26.932Z,98.32
2016-07-14T04:58:56.953Z,98.52
2016-07-14T04:59:26.967Z,98.23
2016-07-14T04:59:56.974Z,98.03
2016-07-14T05:00:26.992Z,97.94
2016-07-14T05:00:57.001Z,98.03
2016-07-14T05:01:27.016Z,98.03
2016-07-14T05:01:57.024Z,98.03
2016-07-14T05:02:27.036Z,98.03
2016-07-14T05:02:57.051Z,97.85
2016-07-14T05:03:27.067Z,97.66
2016-07-14T05:03:57.081Z,97.56
2016-07-14T05:04:27.107Z,98.03
2016-07-14T05:04:56.404Z,98.13
2016-07-14T05:05:27.122Z,98.13
2016-07-14T05:05:57.136Z,98.03
2016-07-14T05:06:27.151Z,97.85
2016-07-14T05:06:57.167Z,98.03
2016-07-14T05:07:27.186Z,97.66
2016-07-14T05:07:57.195Z,97.94
2016-07-14T05:08:27.222Z,98.03
2016-07-14T05:08:56.512Z,97.56
2016-07-14T05:09:27.237Z,98.03
2016-07-14T05:09:57.245Z,98.03
2016-07-14T05:10:27.270Z,97.47
2016-07-14T05:10:57.283Z,97.37
2016-07-14T05:11:27.299Z,97.71
2016-07-14T05:11:57.318Z,97.71
2016-07-14T05:12:27.324Z,97.03
2016-07-14T05:12:57.323Z,97.32
2016-07-14T05:13:26.634Z,97.03
2016-07-14T05:13:57.360Z,97.32
2016-07-14T05:14:27.373Z,97.03
2016-07-14T05:14:57.389Z,97.03
2016-07-14T05:15:27.400Z,96.94
2016-07-14T05:15:57.416Z,96.84
2016-07-14T05:16:27.444Z,96.56
2016-07-14T05:16:57.449Z,96.27
2016-07-14T05:17:27.463Z,95.98
2016-07-14T05:17:57.470Z,96.17
2016-07-14T05:18:27.493Z,96.27
2016-07-14T05:18:57.530Z,96.37
2016-07-14T05:19:27.511Z,96.08
2016-07-14T05:19:57.536Z,95.79
2016-07-14T05:20:26.839Z,95.89
2016-07-14T05:20:57.557Z,95.79
2016-07-14T05:21:27.595Z,95.03
2016-07-14T05:21:57.587Z,95.36
2016-07-14T05:22:27.599Z,94.31
2016-07-14T05:22:57.621Z,94.98
2016-07-14T05:23:27.648Z,94.51
2016-07-14T05:23:57.639Z,94.55
2016-07-14T05:24:26.239Z,93.79
2016-07-14T05:24:57.895Z,93.12
2016-07-14T05:25:27.677Z,92.54
2016-07-14T05:25:57.700Z,92.45
2016-07-14T05:26:27.717Z,92.3
2016-07-14T05:26:57.027Z,91.73
2016-07-14T05:27:27.733Z,91.53
2016-07-14T05:27:57.757Z,91.35
2016-07-14T05:28:27.774Z,91.25
2016-07-14T05:28:57.776Z,91.63
2016-07-14T05:29:27.794Z,91.25
2016-07-14T05:29:57.111Z,91.35
2016-07-14T05:30:27.824Z,90.96
2016-07-14T05:30:57.121Z,90.2
2016-07-14T05:31:27.135Z,90.39
2016-07-14T05:31:57.160Z,90.58
2016-07-14T05:32:27.878Z,89.81
2016-07-14T05:32:57.890Z,89.81
2016-07-14T05:33:27.912Z,89.62
2016-07-14T05:33:57.914Z,89.34
2016-07-14T05:34:27.956Z,89.15
2016-07-14T05:34:57.958Z,89.43
2016-07-14T05:35:27.963Z,89.43
2016-07-14T05:35:57.276Z,89.19
2016-07-14T05:36:27.996Z,89.09
2016-07-14T05:36:58.003Z,89.19
2016-07-14T05:37:28.017Z,89.38
2016-07-14T05:37:58.036Z,89.38
2016-07-14T05:38:28.049Z,88.9
2016-07-14T05:38:58.070Z,88.13
2016-07-14T05:39:28.081Z,88.23
2016-07-14T05:39:57.374Z,88.52
2016-07-14T05:40:28.110Z,88.23
2016-07-14T05:40:57.410Z,87.76
2016-07-14T05:41:28.136Z,87.95
2016-07-14T05:41:58.150Z,87.95
2016-07-14T05:42:28.175Z,88.13
2016-07-14T05:42:58.184Z,88.28
2016-07-14T05:43:28.189Z,87.51
2016-07-14T05:43:57.493Z,86.99
2016-07-14T05:44:28.227Z,87.08
2016-07-14T05:44:58.229Z,87.85
2016-07-14T05:45:27.550Z,88.04
2016-07-14T05:45:58.270Z,88.04
2016-07-14T05:46:28.293Z,88.62
2016-07-14T05:46:57.589Z,88.62
2016-07-14T05:47:28.306Z,88.81
2016-07-14T05:47:58.322Z,88.95
2016-07-14T05:48:28.339Z,89.15
2016-07-14T05:48:58.361Z,88.86
2016-07-14T05:49:28.369Z,89.34
2016-07-14T05:49:58.389Z,89.05
2016-07-14T05:50:28.385Z,89.62
2016-07-14T05:50:58.416Z,89.15
2016-07-14T05:51:28.425Z,89.72
2016-07-14T05:51:58.436Z,89.53
2016-07-14T05:52:28.455Z,90.01
2016-07-14T05:52:58.481Z,89.72
2016-07-14T05:53:28.480Z,90.2
2016-07-14T05:53:58.492Z,90.3
2016-07-14T05:54:28.512Z,90.25
2016-07-14T05:54:57.812Z,90.63
2016-07-14T05:55:28.545Z,90.16
2016-07-14T05:55:58.552Z,90.16
2016-07-14T05:56:28.576Z,90.16
2016-07-14T05:56:57.879Z,90.16
2016-07-14T05:57:27.898Z,90.16
2016-07-14T05:57:58.605Z,90.16
2016-07-14T05:58:28.615Z,90.34
2016-07-14T05:58:58.636Z,90.34
2016-07-14T05:59:28.667Z,90.63
2016-07-14T05:59:57.955Z,90.63
2016-07-14T06:00:28.682Z,90.44
2016-07-14T06:00:58.696Z,90.25
2016-07-14T06:01:27.296Z,90.25
2016-07-14T06:01:58.718Z,90.1
2016-07-14T06:02:28.736Z,90.1
2016-07-14T06:02:58.759Z,90.06
2016-07-14T06:03:28.767Z,90.2
2016-07-14T06:03:58.783Z,90.2
2016-07-14T06:04:28.805Z,90.25
2016-07-14T06:04:58.096Z,90.48
2016-07-14T06:05:28.817Z,89.91
2016-07-14T06:05:58.848Z,89.72
2016-07-14T06:06:28.856Z,89.53
2016-07-14T06:06:58.879Z,89.53
2016-07-14T06:07:28.877Z,89.62
2016-07-14T06:07:58.903Z,89.72
2016-07-14T06:08:28.908Z,90.01
2016-07-14T06:08:58.222Z,89.72
2016-07-14T06:09:28.936Z,89.15
2016-07-14T06:09:58.949Z,88.95
2016-07-14T06:10:28.963Z,89.34
2016-07-14T06:10:58.992Z,89.34
2016-07-14T06:11:28.992Z,89.34
2016-07-14T06:11:59.027Z,89.05
2016-07-14T06:12:29.039Z,89.34
2016-07-14T06:12:59.042Z,89.05
2016-07-14T06:13:29.058Z,89.38
2016-07-14T06:13:59.066Z,89
2016-07-14T06:14:28.366Z,88.43
2016-07-14T06:14:59.103Z,86.61
2016-07-14T06:15:29.106Z,86.32
2016-07-14T06:15:58.414Z,85.84
2016-07-14T06:16:28.422Z,86.04
2016-07-14T06:16:59.146Z,86.51
2016-07-14T06:17:29.164Z,87.18
2016-07-14T06:17:59.176Z,88.62
2016-07-14T06:18:29.199Z,87.76
2016-07-14T06:18:59.206Z,88.33
2016-07-14T06:19:29.228Z,87.18
2016-07-14T06:19:59.243Z,86.9
2016-07-14T06:20:28.542Z,86.61
2016-07-14T06:20:59.267Z,86.13
2016-07-14T06:21:29.280Z,86.8
2016-07-14T06:21:59.301Z,86.61
2016-07-14T06:22:29.312Z,85.88
2016-07-14T06:22:59.329Z,85.69
2016-07-14T06:23:29.340Z,85.5
2016-07-14T06:23:59.363Z,85.69
2016-07-14T06:24:29.377Z,84.74
2016-07-14T06:24:59.405Z,85.02
2016-07-14T06:25:29.394Z,85.02
2016-07-14T06:25:58.707Z,84.3
2016-07-14T06:26:29.421Z,84.39
2016-07-14T06:26:59.447Z,84.49
2016-07-14T06:27:29.450Z,85.06